Country
Station

 

Weather  for  Santa Maria, Santa Maria Public Airport  -  United States    United States

  
8 °C (46 °F)
    
 
 

Current METAR for Santa Maria, Santa Maria Public Airport is :

KSMX 181451Z 00000KT 10SM R12/1000VP6000FT CLR 08/07 A3011 RMK AO2 SLP199 T00830072 51011 $

 

This is a report for Santa Maria, Santa Maria Public Airport - United States.
 
The report was made 6 minutes ago, at 14:51 UTC .
The wind was calm.
 
The temperature was 8 °C (46 °F), with a dew-point at 7 °C (45 °F).
The atmospheric pressure was 1020 hPa (30.11 inHg).
The relative humidity was 93.4%.
 
The sky was clear.
 
The overall visibility was 16.1 kilometers (10.0 miles).
 

 
 
 
 

Country :   A   B   C   D   E   F   G   H   I   J   K   L   M   N   O   P   Q   R   S   T   U   V   W   Y   Z

 

Site Info  |  Disclaimer  |  Credits  |  Privacy
Contact us  |  Add to favorites
© 2013-2018 METARs - All rights reserved